Flight Track Log - Related Links

Times and Time Zones

All times are in EST time to prevent confusion due to time zone crossing. See the N3726K flight status page for this flight to view local times or setup timezone preferences in your user account.

Time Position Orientation Groundspeed Altitude Reporting Facility
EST Latitude Longitude Course Direction KTS MPH feet Rate Location/Type
Mon 03:07:09 PM 43.6517 -96.7167 62° Northeast 118 136 5,600  Level Minneapolis Center
Mon 03:08:11 PM 43.6753 -96.6819 47° Northeast 120 138 6,700 1,024 Climbing Minneapolis Center
Mon 03:09:12 PM 43.6936 -96.6397 59° Northeast 123 142 7,700 927 Climbing Minneapolis Center
Mon 03:10:14 PM 43.7103 -96.5903 65° Northeast 131 151 8,600 629 Climbing Minneapolis Center
Mon 03:11:00 PM 43.7309 -96.3686 63° Northeast  Level Estimated
Mon 03:11:16 PM 43.7292 -96.5406 62° Northeast 139 160 9,000  Level Minneapolis Center
Mon 03:12:00 PM 43.7546 -96.3055 62° Northeast  Level FlightAware Approximate
Mon 03:12:17 PM 43.7572 -96.4650 63° Northeast 164 189 9,000  Level Minneapolis Center
Mon 03:13:19 PM 43.7814 -96.4008 62° Northeast 179 206 9,000  Level Minneapolis Center
Mon 03:14:21 PM 43.8067 -96.3358 62° Northeast 186 214 9,000  Level Minneapolis Center
Mon 03:15:22 PM 43.8306 -96.2719 63° Northeast 189 217 9,000  Level Minneapolis Center
Mon 03:16:24 PM 43.8550 -96.2078 62° Northeast 189 217 9,000  Level Minneapolis Center
Mon 03:17:25 PM 43.8797 -96.1436 62° Northeast 189 217 9,000  Level Minneapolis Center
Mon 03:18:27 PM 43.9086 -96.0656 63° Northeast 190 219 9,000  Level Minneapolis Center
Mon 03:19:28 PM 43.9325 -95.9997 63° Northeast 191 220 9,000  Level Minneapolis Center
Mon 03:20:30 PM 43.9575 -95.9342 62° Northeast 193 222 9,000  Level Minneapolis Center
Mon 03:21:32 PM 43.9825 -95.8692 62° Northeast 193 222 9,000  Level Minneapolis Center
Mon 03:22:33 PM 44.0067 -95.8036 63° Northeast 192 221 9,000  Level Minneapolis Center
Mon 03:23:35 PM 44.0314 -95.7386 62° Northeast 192 221 9,000  Level Minneapolis Center
Mon 03:24:36 PM 44.0556 -95.6714 63° Northeast 194 223 9,000  Level Minneapolis Center
Mon 03:25:38 PM 44.0853 -95.5928 62° Northeast 193 222 9,000  Level Minneapolis Center
Mon 03:26:39 PM 44.1089 -95.5261 64° Northeast 194 223 9,000  Level Minneapolis Center
Mon 03:27:41 PM 44.1336 -95.4617 62° Northeast 191 220 9,000  Level Minneapolis Center
Mon 03:28:42 PM 44.1578 -95.3956 63° Northeast 192 221 9,000  Level Minneapolis Center
Mon 03:29:44 PM 44.1822 -95.3294 63° Northeast 193 222 9,000  Level Minneapolis Center
Mon 03:30:45 PM 44.2053 -95.2639 64° Northeast 191 220 9,000  Level Minneapolis Center
Mon 03:31:47 PM 44.2283 -95.1986 64° Northeast 189 217 9,000  Level Minneapolis Center
Mon 03:32:48 PM 44.2578 -95.1211 62° Northeast 189 217 9,000  Level Minneapolis Center
Mon 03:33:50 PM 44.2814 -95.0556 63° Northeast 189 217 9,000  Level Minneapolis Center
Mon 03:34:51 PM 44.3042 -94.9911 64° Northeast 188 216 9,000  Level Minneapolis Center
Mon 03:35:53 PM 44.3281 -94.9258 63° Northeast 188 216 9,000  Level Minneapolis Center
Mon 03:36:54 PM 44.3519 -94.8611 63° Northeast 189 217 9,000  Level Minneapolis Center
Mon 03:37:56 PM 44.3753 -94.7964 63° Northeast 188 216 9,000  Level Minneapolis Center
Mon 03:38:57 PM 44.3986 -94.7306 64° Northeast 189 217 9,000  Level Minneapolis Center
Mon 03:39:59 PM 44.4211 -94.6658 64° Northeast 186 214 9,000  Level Minneapolis Center
Mon 03:41:00 PM 44.4475 -94.5958 62° Northeast 188 216 9,000  Level Minneapolis Center
Mon 03:42:02 PM 44.4703 -94.5300 64° Northeast 188 216 9,000  Level Minneapolis Center
Mon 03:43:03 PM 44.4928 -94.4639 64° Northeast 187 215 9,000  Level Minneapolis Center
Mon 03:44:05 PM 44.5167 -94.3983 63° Northeast 188 216 9,000  Level Minneapolis Center
Mon 03:45:06 PM 44.5433 -94.3200 64° Northeast 185 213 9,000 49 Level Minneapolis Center
Mon 03:46:08 PM 44.5656 -94.2536 65° Northeast 186 214 9,100 49 Climbing Minneapolis Center
Mon 03:47:09 PM 44.5892 -94.1894 63° Northeast 185 213 9,100  Level Minneapolis Center
Mon 03:48:11 PM 44.6119 -94.1231 64° Northeast 187 215 9,100  Level Minneapolis Center
Mon 03:49:12 PM 44.6347 -94.0569 64° Northeast 187 215 9,100  Level Minneapolis Center
Mon 03:50:14 PM 44.6578 -93.9903 64° Northeast 191 220 9,100  Level Minneapolis Center
Mon 03:51:15 PM 44.6811 -93.9239 64° Northeast 192 221 9,100 -49 Level Minneapolis Center
Mon 03:52:17 PM 44.7036 -93.8581 64° Northeast 190 219 9,000 -49 Descending Minneapolis Center
Mon 03:53:18 PM 44.7311 -93.7789 64° Northeast 190 219 9,000  Level Minneapolis Center
Mon 03:54:20 PM 44.7536 -93.7125 64° Northeast 190 219 9,000  Level Minneapolis Center
Mon 03:55:21 PM 44.7764 -93.6458 64° Northeast 189 217 9,000  Level Minneapolis Center
Mon 03:56:23 PM 44.7992 -93.5797 64° Northeast 188 216 9,000  Level Minneapolis Center
Mon 03:57:24 PM 44.8219 -93.5125 64° Northeast 189 217 9,000  Level Minneapolis Center
Mon 03:58:26 PM 44.8453 -93.4447 64° Northeast 190 219 9,000 -195 Level Minneapolis Center
Mon 03:59:27 PM 44.8686 -93.3764 64° Northeast 191 220 8,600 -488 Descending Minneapolis Center
Mon 04:00:29 PM 44.8928 -93.3047 65° Northeast 200 230 8,000 -293 Descending Minneapolis Center
Mon 04:01:30 PM 44.9153 -93.2381 64° Northeast 189 217 8,000 -98 Level Minneapolis Center
Mon 04:02:32 PM 44.9372 -93.1739 64° Northeast 181 208 7,800 -532 Descending Minneapolis Center
Mon 04:03:34 PM 44.9633 -93.0947 65° Northeast 185 213 6,900 -878 Descending Minneapolis Center
Mon 04:04:35 PM 44.9853 -93.0289 65° Northeast 184 212 6,000 -927 Descending Minneapolis Center
Mon 04:05:37 PM 45.0069 -92.9642 65° Northeast 183 211 5,000 -927 Descending Minneapolis Center
Mon 04:06:38 PM 45.0289 -92.8978 65° Northeast 185 213 4,100 -488 Descending Minneapolis Center
Mon 04:07:40 PM 45.0497 -92.8353 65° Northeast 176 203 4,000 -49 Descending Minneapolis Center
Mon 04:08:41 PM 45.0678 -92.7817 64° Northeast 154 177 4,000  Level Minneapolis Center
Mon 04:09:43 PM 45.0869 -92.7211 66° East 151 174 4,000  Level Minneapolis Center
Mon 04:11:00 PM 45.1093 -92.6388 69° East  Level FlightAware Approximate
Mon 04:18:00 PM 45.1333 -92.5333 90° East  Level FlightAware Approximate
Mon 04:19:00 PM 45.1478 -92.5392 90° East  Level Estimated
Mon 04:20:00 PM 45.1478 -92.5392 90° East  Level Estimated
Mon 04:21:00 PM 45.1478 -92.5392 90° East  Level Estimated
Mon 04:22:00 PM 45.1478 -92.5392 90° East  Level Estimated

Login

Don't have an account? Register now (free) for customized features, flight alerts, and more!